sensor_id;sensor_type;location;lat;lon;timestamp;P1;durP1;ratioP1;P2;durP2;ratioP2
19965;SDS011;10144;50.874;4.762;2022-10-22T00:01:15;8.25;;;3.33;;
19965;SDS011;10144;50.874;4.762;2022-10-22T00:03:44;13.73;;;3.42;;
19965;SDS011;10144;50.874;4.762;2022-10-22T00:06:16;13.05;;;3.35;;
19965;SDS011;10144;50.874;4.762;2022-10-22T00:11:17;14.23;;;3.47;;
19965;SDS011;10144;50.874;4.762;2022-10-22T00:16:13;13.77;;;3.22;;
19965;SDS011;10144;50.874;4.762;2022-10-22T00:21:09;10.13;;;2.97;;
19965;SDS011;10144;50.874;4.762;2022-10-22T00:26:08;15.85;;;3.13;;
19965;SDS011;10144;50.874;4.762;2022-10-22T00:28:34;14.90;;;3.17;;
19965;SDS011;10144;50.874;4.762;2022-10-22T00:31:08;13.35;;;3.25;;
19965;SDS011;10144;50.874;4.762;2022-10-22T00:33:34;17.92;;;3.42;;
19965;SDS011;10144;50.874;4.762;2022-10-22T00:36:02;9.18;;;2.70;;
19965;SDS011;10144;50.874;4.762;2022-10-22T00:43:29;10.40;;;2.90;;
19965;SDS011;10144;50.874;4.762;2022-10-22T00:46:13;9.65;;;2.65;;
19965;SDS011;10144;50.874;4.762;2022-10-22T00:48:40;12.30;;;2.58;;
19965;SDS011;10144;50.874;4.762;2022-10-22T00:51:09;11.65;;;2.88;;
19965;SDS011;10144;50.874;4.762;2022-10-22T00:53:37;11.40;;;2.78;;
19965;SDS011;10144;50.874;4.762;2022-10-22T00:56:18;11.68;;;2.72;;
19965;SDS011;10144;50.874;4.762;2022-10-22T01:01:34;16.25;;;2.83;;
19965;SDS011;10144;50.874;4.762;2022-10-22T01:04:00;16.00;;;2.63;;
19965;SDS011;10144;50.874;4.762;2022-10-22T01:06:28;10.27;;;2.38;;
19965;SDS011;10144;50.874;4.762;2022-10-22T01:11:51;8.48;;;2.50;;
19965;SDS011;10144;50.874;4.762;2022-10-22T01:31:51;14.65;;;2.50;;
19965;SDS011;10144;50.874;4.762;2022-10-22T01:34:24;9.10;;;2.60;;
19965;SDS011;10144;50.874;4.762;2022-10-22T01:36:57;14.88;;;3.10;;
19965;SDS011;10144;50.874;4.762;2022-10-22T01:41:55;16.65;;;2.88;;
19965;SDS011;10144;50.874;4.762;2022-10-22T01:55:19;10.57;;;2.95;;
19965;SDS011;10144;50.874;4.762;2022-10-22T02:00:29;12.85;;;3.25;;
19965;SDS011;10144;50.874;4.762;2022-10-22T02:02:58;15.40;;;3.10;;
19965;SDS011;10144;50.874;4.762;2022-10-22T02:08:20;12.23;;;2.70;;
19965;SDS011;10144;50.874;4.762;2022-10-22T02:10:57;12.30;;;3.20;;
19965;SDS011;10144;50.874;4.762;2022-10-22T02:13:29;9.30;;;3.22;;
19965;SDS011;10144;50.874;4.762;2022-10-22T02:18:36;8.10;;;2.80;;
19965;SDS011;10144;50.874;4.762;2022-10-22T02:21:10;6.35;;;2.90;;
19965;SDS011;10144;50.874;4.762;2022-10-22T02:23:41;15.88;;;3.15;;
19965;SDS011;10144;50.874;4.762;2022-10-22T02:26:14;14.82;;;3.28;;
19965;SDS011;10144;50.874;4.762;2022-10-22T02:32:05;6.85;;;2.78;;
19965;SDS011;10144;50.874;4.762;2022-10-22T02:37:03;8.98;;;3.08;;
19965;SDS011;10144;50.874;4.762;2022-10-22T02:39:33;9.98;;;2.83;;
19965;SDS011;10144;50.874;4.762;2022-10-22T02:42:00;15.25;;;3.28;;
19965;SDS011;10144;50.874;4.762;2022-10-22T02:47:01;11.52;;;2.90;;
19965;SDS011;10144;50.874;4.762;2022-10-22T02:49:33;21.80;;;3.22;;
19965;SDS011;10144;50.874;4.762;2022-10-22T02:54:31;10.20;;;3.05;;
19965;SDS011;10144;50.874;4.762;2022-10-22T02:59:29;15.82;;;3.17;;
19965;SDS011;10144;50.874;4.762;2022-10-22T03:01:55;9.38;;;2.75;;
19965;SDS011;10144;50.874;4.762;2022-10-22T03:04:23;10.80;;;2.70;;
19965;SDS011;10144;50.874;4.762;2022-10-22T03:06:50;9.10;;;2.60;;
19965;SDS011;10144;50.874;4.762;2022-10-22T03:12:05;14.65;;;3.20;;
19965;SDS011;10144;50.874;4.762;2022-10-22T03:14:34;14.25;;;2.60;;
19965;SDS011;10144;50.874;4.762;2022-10-22T03:17:03;12.27;;;2.55;;
19965;SDS011;10144;50.874;4.762;2022-10-22T03:19:32;10.02;;;2.80;;
19965;SDS011;10144;50.874;4.762;2022-10-22T03:22:01;8.43;;;2.40;;
19965;SDS011;10144;50.874;4.762;2022-10-22T03:27:09;12.40;;;2.65;;
19965;SDS011;10144;50.874;4.762;2022-10-22T03:29:42;8.50;;;2.50;;
19965;SDS011;10144;50.874;4.762;2022-10-22T03:32:14;11.35;;;2.75;;
19965;SDS011;10144;50.874;4.762;2022-10-22T03:34:42;10.32;;;2.53;;
19965;SDS011;10144;50.874;4.762;2022-10-22T03:42:09;10.00;;;2.90;;
19965;SDS011;10144;50.874;4.762;2022-10-22T03:44:43;10.30;;;2.20;;
19965;SDS011;10144;50.874;4.762;2022-10-22T03:47:09;11.13;;;2.47;;
19965;SDS011;10144;50.874;4.762;2022-10-22T03:49:36;11.15;;;2.63;;
19965;SDS011;10144;50.874;4.762;2022-10-22T03:57:20;14.82;;;2.80;;
19965;SDS011;10144;50.874;4.762;2022-10-22T03:59:45;8.80;;;2.75;;
19965;SDS011;10144;50.874;4.762;2022-10-22T04:02:11;15.18;;;2.55;;
19965;SDS011;10144;50.874;4.762;2022-10-22T04:04:38;12.35;;;2.38;;
19965;SDS011;10144;50.874;4.762;2022-10-22T04:07:10;11.57;;;2.25;;
19965;SDS011;10144;50.874;4.762;2022-10-22T04:09:37;11.50;;;2.55;;
19965;SDS011;10144;50.874;4.762;2022-10-22T04:12:03;9.32;;;2.28;;
19965;SDS011;10144;50.874;4.762;2022-10-22T04:14:31;11.98;;;2.45;;
19965;SDS011;10144;50.874;4.762;2022-10-22T04:16:59;9.45;;;2.80;;
19965;SDS011;10144;50.874;4.762;2022-10-22T04:19:25;9.48;;;2.33;;
19965;SDS011;10144;50.874;4.762;2022-10-22T04:24:25;9.77;;;2.25;;
19965;SDS011;10144;50.874;4.762;2022-10-22T04:29:22;12.60;;;2.17;;
19965;SDS011;10144;50.874;4.762;2022-10-22T04:31:57;11.80;;;2.30;;
19965;SDS011;10144;50.874;4.762;2022-10-22T04:34:25;12.13;;;2.30;;
19965;SDS011;10144;50.874;4.762;2022-10-22T04:36:53;9.85;;;2.30;;
19965;SDS011;10144;50.874;4.762;2022-10-22T04:39:28;10.43;;;2.25;;
19965;SDS011;10144;50.874;4.762;2022-10-22T04:41:59;12.05;;;2.53;;
19965;SDS011;10144;50.874;4.762;2022-10-22T04:44:25;10.77;;;2.45;;
19965;SDS011;10144;50.874;4.762;2022-10-22T04:46:51;13.38;;;2.17;;
19965;SDS011;10144;50.874;4.762;2022-10-22T04:49:20;10.30;;;2.35;;
19965;SDS011;10144;50.874;4.762;2022-10-22T04:51:48;7.95;;;2.17;;
19965;SDS011;10144;50.874;4.762;2022-10-22T04:54:17;9.30;;;2.15;;
19965;SDS011;10144;50.874;4.762;2022-10-22T04:59:13;9.95;;;2.15;;
19965;SDS011;10144;50.874;4.762;2022-10-22T05:01:39;8.40;;;1.95;;
19965;SDS011;10144;50.874;4.762;2022-10-22T05:04:14;10.65;;;2.38;;
19965;SDS011;10144;50.874;4.762;2022-10-22T05:06:51;11.48;;;2.10;;
19965;SDS011;10144;50.874;4.762;2022-10-22T05:11:47;10.95;;;2.40;;
19965;SDS011;10144;50.874;4.762;2022-10-22T05:14:19;13.50;;;2.35;;
19965;SDS011;10144;50.874;4.762;2022-10-22T05:16:46;14.30;;;2.30;;
19965;SDS011;10144;50.874;4.762;2022-10-22T05:19:16;8.77;;;2.20;;
19965;SDS011;10144;50.874;4.762;2022-10-22T05:21:49;12.40;;;2.47;;
19965;SDS011;10144;50.874;4.762;2022-10-22T05:24:15;8.05;;;2.10;;
19965;SDS011;10144;50.874;4.762;2022-10-22T05:26:42;8.85;;;2.25;;
19965;SDS011;10144;50.874;4.762;2022-10-22T05:29:07;10.40;;;2.40;;
19965;SDS011;10144;50.874;4.762;2022-10-22T05:31:33;11.68;;;2.03;;
19965;SDS011;10144;50.874;4.762;2022-10-22T05:34:01;14.57;;;2.45;;
19965;SDS011;10144;50.874;4.762;2022-10-22T05:36:26;20.83;;;2.10;;
19965;SDS011;10144;50.874;4.762;2022-10-22T05:38:52;11.05;;;2.05;;
19965;SDS011;10144;50.874;4.762;2022-10-22T05:41:19;13.70;;;2.05;;
19965;SDS011;10144;50.874;4.762;2022-10-22T05:43:47;7.75;;;1.88;;
19965;SDS011;10144;50.874;4.762;2022-10-22T05:46:18;13.48;;;2.13;;
19965;SDS011;10144;50.874;4.762;2022-10-22T05:48:55;12.85;;;2.10;;
19965;SDS011;10144;50.874;4.762;2022-10-22T05:51:24;16.38;;;2.10;;
19965;SDS011;10144;50.874;4.762;2022-10-22T05:53:51;9.15;;;2.28;;
19965;SDS011;10144;50.874;4.762;2022-10-22T05:56:21;7.80;;;2.00;;
19965;SDS011;10144;50.874;4.762;2022-10-22T06:01:19;10.02;;;1.90;;
19965;SDS011;10144;50.874;4.762;2022-10-22T06:03:57;9.93;;;2.25;;
19965;SDS011;10144;50.874;4.762;2022-10-22T06:06:32;10.02;;;2.17;;
19965;SDS011;10144;50.874;4.762;2022-10-22T06:09:19;10.32;;;1.80;;
19965;SDS011;10144;50.874;4.762;2022-10-22T06:11:51;15.30;;;2.30;;
19965;SDS011;10144;50.874;4.762;2022-10-22T06:14:19;12.77;;;1.80;;
19965;SDS011;10144;50.874;4.762;2022-10-22T06:16:48;14.02;;;2.53;;
19965;SDS011;10144;50.874;4.762;2022-10-22T06:19:15;12.32;;;2.13;;
19965;SDS011;10144;50.874;4.762;2022-10-22T06:21:42;11.68;;;2.17;;
19965;SDS011;10144;50.874;4.762;2022-10-22T06:24:09;13.85;;;1.90;;
19965;SDS011;10144;50.874;4.762;2022-10-22T06:26:35;11.15;;;2.05;;
19965;SDS011;10144;50.874;4.762;2022-10-22T06:29:01;11.32;;;2.30;;
19965;SDS011;10144;50.874;4.762;2022-10-22T06:31:28;13.60;;;2.20;;
19965;SDS011;10144;50.874;4.762;2022-10-22T06:34:00;14.38;;;2.05;;
19965;SDS011;10144;50.874;4.762;2022-10-22T06:36:26;9.90;;;1.73;;
19965;SDS011;10144;50.874;4.762;2022-10-22T06:38:52;11.95;;;1.67;;
19965;SDS011;10144;50.874;4.762;2022-10-22T06:41:19;13.52;;;2.03;;
19965;SDS011;10144;50.874;4.762;2022-10-22T06:43:52;7.65;;;1.85;;
19965;SDS011;10144;50.874;4.762;2022-10-22T06:46:18;8.20;;;2.03;;
19965;SDS011;10144;50.874;4.762;2022-10-22T06:51:41;19.00;;;1.88;;
19965;SDS011;10144;50.874;4.762;2022-10-22T06:54:07;15.30;;;2.25;;
19965;SDS011;10144;50.874;4.762;2022-10-22T06:56:32;11.48;;;1.83;;
19965;SDS011;10144;50.874;4.762;2022-10-22T06:58:58;12.60;;;1.60;;
19965;SDS011;10144;50.874;4.762;2022-10-22T07:01:25;9.15;;;1.67;;
19965;SDS011;10144;50.874;4.762;2022-10-22T07:03:52;8.02;;;1.45;;
19965;SDS011;10144;50.874;4.762;2022-10-22T07:06:18;8.27;;;1.90;;
19965;SDS011;10144;50.874;4.762;2022-10-22T07:08:45;11.02;;;1.80;;
19965;SDS011;10144;50.874;4.762;2022-10-22T07:11:15;10.88;;;1.55;;
19965;SDS011;10144;50.874;4.762;2022-10-22T07:13:48;14.75;;;1.80;;
19965;SDS011;10144;50.874;4.762;2022-10-22T07:16:14;13.18;;;2.20;;
19965;SDS011;10144;50.874;4.762;2022-10-22T07:18:41;12.00;;;1.95;;
19965;SDS011;10144;50.874;4.762;2022-10-22T07:21:08;11.18;;;1.50;;
19965;SDS011;10144;50.874;4.762;2022-10-22T07:23:35;9.60;;;1.90;;
19965;SDS011;10144;50.874;4.762;2022-10-22T07:26:01;10.88;;;1.60;;
19965;SDS011;10144;50.874;4.762;2022-10-22T07:28:28;11.68;;;2.03;;
19965;SDS011;10144;50.874;4.762;2022-10-22T07:30:54;8.68;;;1.55;;
19965;SDS011;10144;50.874;4.762;2022-10-22T07:33:20;8.13;;;1.95;;
19965;SDS011;10144;50.874;4.762;2022-10-22T07:35:49;8.55;;;1.75;;
19965;SDS011;10144;50.874;4.762;2022-10-22T07:40:46;12.18;;;1.70;;
19965;SDS011;10144;50.874;4.762;2022-10-22T07:43:11;10.70;;;1.60;;
19965;SDS011;10144;50.874;4.762;2022-10-22T07:45:37;7.60;;;1.65;;
19965;SDS011;10144;50.874;4.762;2022-10-22T07:48:03;7.80;;;1.55;;
19965;SDS011;10144;50.874;4.762;2022-10-22T07:50:30;12.80;;;1.73;;
19965;SDS011;10144;50.874;4.762;2022-10-22T07:52:55;9.88;;;1.80;;
19965;SDS011;10144;50.874;4.762;2022-10-22T07:55:21;10.05;;;2.03;;
19965;SDS011;10144;50.874;4.762;2022-10-22T07:57:47;10.38;;;1.65;;
19965;SDS011;10144;50.874;4.762;2022-10-22T08:00:12;15.75;;;1.98;;
19965;SDS011;10144;50.874;4.762;2022-10-22T08:02:38;11.85;;;1.60;;
19965;SDS011;10144;50.874;4.762;2022-10-22T08:05:04;12.35;;;1.70;;
19965;SDS011;10144;50.874;4.762;2022-10-22T08:07:30;10.23;;;1.73;;
19965;SDS011;10144;50.874;4.762;2022-10-22T08:09:56;8.52;;;2.03;;
19965;SDS011;10144;50.874;4.762;2022-10-22T08:12:21;5.85;;;1.55;;
19965;SDS011;10144;50.874;4.762;2022-10-22T08:14:47;11.10;;;1.80;;
19965;SDS011;10144;50.874;4.762;2022-10-22T08:17:12;8.38;;;1.70;;
19965;SDS011;10144;50.874;4.762;2022-10-22T08:19:39;10.82;;;2.08;;
19965;SDS011;10144;50.874;4.762;2022-10-22T08:22:05;11.57;;;1.45;;
19965;SDS011;10144;50.874;4.762;2022-10-22T08:24:30;10.90;;;1.92;;
19965;SDS011;10144;50.874;4.762;2022-10-22T08:26:56;9.25;;;1.52;;
19965;SDS011;10144;50.874;4.762;2022-10-22T08:29:22;7.68;;;1.52;;
19965;SDS011;10144;50.874;4.762;2022-10-22T08:31:48;6.93;;;2.05;;
19965;SDS011;10144;50.874;4.762;2022-10-22T08:34:14;6.47;;;1.50;;
19965;SDS011;10144;50.874;4.762;2022-10-22T08:36:40;10.90;;;1.58;;
19965;SDS011;10144;50.874;4.762;2022-10-22T08:39:06;10.65;;;1.60;;
19965;SDS011;10144;50.874;4.762;2022-10-22T08:41:34;8.18;;;1.48;;
19965;SDS011;10144;50.874;4.762;2022-10-22T08:49:39;9.90;;;1.60;;
19965;SDS011;10144;50.874;4.762;2022-10-22T08:52:13;8.27;;;1.42;;
19965;SDS011;10144;50.874;4.762;2022-10-22T08:54:57;7.25;;;1.58;;
19965;SDS011;10144;50.874;4.762;2022-10-22T09:03:38;9.02;;;1.67;;
19965;SDS011;10144;50.874;4.762;2022-10-22T09:06:18;9.40;;;1.70;;
19965;SDS011;10144;50.874;4.762;2022-10-22T09:08:44;12.32;;;1.80;;
19965;SDS011;10144;50.874;4.762;2022-10-22T09:13:37;9.45;;;1.77;;
19965;SDS011;10144;50.874;4.762;2022-10-22T09:24:43;9.52;;;1.40;;
19965;SDS011;10144;50.874;4.762;2022-10-22T09:27:12;9.65;;;1.80;;
19965;SDS011;10144;50.874;4.762;2022-10-22T09:29:44;12.38;;;2.17;;
19965;SDS011;10144;50.874;4.762;2022-10-22T09:32:12;7.32;;;1.63;;
19965;SDS011;10144;50.874;4.762;2022-10-22T09:34:38;10.25;;;1.67;;
19965;SDS011;10144;50.874;4.762;2022-10-22T09:37:05;10.90;;;1.60;;
19965;SDS011;10144;50.874;4.762;2022-10-22T09:39:34;11.23;;;1.75;;
19965;SDS011;10144;50.874;4.762;2022-10-22T09:42:07;8.55;;;1.65;;
19965;SDS011;10144;50.874;4.762;2022-10-22T09:44:35;13.18;;;1.60;;
19965;SDS011;10144;50.874;4.762;2022-10-22T09:47:03;6.47;;;1.80;;
19965;SDS011;10144;50.874;4.762;2022-10-22T09:49:50;9.00;;;1.70;;
19965;SDS011;10144;50.874;4.762;2022-10-22T09:52:34;8.77;;;1.60;;
19965;SDS011;10144;50.874;4.762;2022-10-22T09:55:00;10.32;;;1.60;;
19965;SDS011;10144;50.874;4.762;2022-10-22T09:57:27;17.05;;;1.98;;
19965;SDS011;10144;50.874;4.762;2022-10-22T09:59:53;6.75;;;1.75;;
19965;SDS011;10144;50.874;4.762;2022-10-22T10:02:22;9.77;;;2.15;;
19965;SDS011;10144;50.874;4.762;2022-10-22T10:04:53;9.65;;;1.83;;
19965;SDS011;10144;50.874;4.762;2022-10-22T10:07:21;15.73;;;2.10;;
19965;SDS011;10144;50.874;4.762;2022-10-22T10:09:49;8.00;;;1.90;;
19965;SDS011;10144;50.874;4.762;2022-10-22T10:18:44;9.18;;;1.70;;
19965;SDS011;10144;50.874;4.762;2022-10-22T10:21:25;13.25;;;2.00;;
19965;SDS011;10144;50.874;4.762;2022-10-22T10:49:52;10.52;;;1.83;;
19965;SDS011;10144;50.874;4.762;2022-10-22T10:52:29;13.32;;;2.28;;
19965;SDS011;10144;50.874;4.762;2022-10-22T10:58:09;9.63;;;1.70;;
19965;SDS011;10144;50.874;4.762;2022-10-22T11:00:54;8.85;;;1.52;;
19965;SDS011;10144;50.874;4.762;2022-10-22T11:06:11;9.88;;;1.60;;
19965;SDS011;10144;50.874;4.762;2022-10-22T11:08:46;9.50;;;1.67;;
19965;SDS011;10144;50.874;4.762;2022-10-22T11:11:28;10.20;;;1.73;;
19965;SDS011;10144;50.874;4.762;2022-10-22T11:16:48;8.48;;;1.80;;
19965;SDS011;10144;50.874;4.762;2022-10-22T11:19:27;7.40;;;1.50;;
19965;SDS011;10144;50.874;4.762;2022-10-22T11:21:57;7.72;;;1.38;;
19965;SDS011;10144;50.874;4.762;2022-10-22T11:24:31;9.15;;;1.95;;
19965;SDS011;10144;50.874;4.762;2022-10-22T11:27:10;9.05;;;1.67;;
19965;SDS011;10144;50.874;4.762;2022-10-22T11:30:02;9.75;;;1.55;;
19965;SDS011;10144;50.874;4.762;2022-10-22T11:32:48;7.25;;;1.45;;
19965;SDS011;10144;50.874;4.762;2022-10-22T11:35:22;8.88;;;1.90;;
19965;SDS011;10144;50.874;4.762;2022-10-22T11:37:50;7.15;;;1.67;;
19965;SDS011;10144;50.874;4.762;2022-10-22T11:43:03;9.13;;;1.55;;
19965;SDS011;10144;50.874;4.762;2022-10-22T11:45:30;13.60;;;1.95;;
19965;SDS011;10144;50.874;4.762;2022-10-22T12:08:55;6.55;;;1.60;;
19965;SDS011;10144;50.874;4.762;2022-10-22T12:11:26;8.00;;;1.55;;
19965;SDS011;10144;50.874;4.762;2022-10-22T12:17:17;6.72;;;1.30;;
19965;SDS011;10144;50.874;4.762;2022-10-22T12:24:43;8.98;;;1.45;;
19965;SDS011;10144;50.874;4.762;2022-10-22T12:27:18;5.13;;;1.20;;
19965;SDS011;10144;50.874;4.762;2022-10-22T12:29:58;4.93;;;1.17;;
19965;SDS011;10144;50.874;4.762;2022-10-22T12:32:36;6.68;;;1.40;;
19965;SDS011;10144;50.874;4.762;2022-10-22T12:35:10;5.65;;;1.33;;
19965;SDS011;10144;50.874;4.762;2022-10-22T12:37:41;5.50;;;1.20;;
19965;SDS011;10144;50.874;4.762;2022-10-22T12:40:20;6.75;;;1.08;;
19965;SDS011;10144;50.874;4.762;2022-10-22T12:42:52;6.28;;;1.08;;
19965;SDS011;10144;50.874;4.762;2022-10-22T12:45:23;4.80;;;1.30;;
19965;SDS011;10144;50.874;4.762;2022-10-22T12:47:56;5.90;;;1.33;;
19965;SDS011;10144;50.874;4.762;2022-10-22T12:50:45;6.55;;;1.30;;
19965;SDS011;10144;50.874;4.762;2022-10-22T12:53:14;5.47;;;1.10;;
19965;SDS011;10144;50.874;4.762;2022-10-22T12:55:40;6.82;;;1.30;;
19965;SDS011;10144;50.874;4.762;2022-10-22T12:58:06;6.53;;;1.25;;
19965;SDS011;10144;50.874;4.762;2022-10-22T13:00:32;6.65;;;1.27;;
19965;SDS011;10144;50.874;4.762;2022-10-22T13:03:01;7.97;;;1.42;;
19965;SDS011;10144;50.874;4.762;2022-10-22T13:05:29;8.30;;;1.23;;
19965;SDS011;10144;50.874;4.762;2022-10-22T13:10:33;8.25;;;1.20;;
19965;SDS011;10144;50.874;4.762;2022-10-22T13:13:02;5.40;;;1.20;;
19965;SDS011;10144;50.874;4.762;2022-10-22T13:18:31;13.70;;;1.70;;
19965;SDS011;10144;50.874;4.762;2022-10-22T13:20:57;7.80;;;1.30;;
19965;SDS011;10144;50.874;4.762;2022-10-22T13:23:26;5.28;;;1.20;;
19965;SDS011;10144;50.874;4.762;2022-10-22T13:28:27;3.30;;;1.00;;
19965;SDS011;10144;50.874;4.762;2022-10-22T13:30:55;8.48;;;1.48;;
19965;SDS011;10144;50.874;4.762;2022-10-22T13:33:31;8.10;;;1.38;;
19965;SDS011;10144;50.874;4.762;2022-10-22T13:36:14;9.98;;;1.20;;
19965;SDS011;10144;50.874;4.762;2022-10-22T13:38:41;7.03;;;1.33;;
19965;SDS011;10144;50.874;4.762;2022-10-22T13:41:17;8.57;;;1.40;;
19965;SDS011;10144;50.874;4.762;2022-10-22T13:43:49;6.28;;;1.30;;
19965;SDS011;10144;50.874;4.762;2022-10-22T13:46:15;8.93;;;1.25;;
19965;SDS011;10144;50.874;4.762;2022-10-22T13:48:42;6.35;;;0.90;;
19965;SDS011;10144;50.874;4.762;2022-10-22T13:51:15;4.78;;;1.10;;
19965;SDS011;10144;50.874;4.762;2022-10-22T13:53:44;7.22;;;1.20;;
19965;SDS011;10144;50.874;4.762;2022-10-22T13:56:14;7.25;;;1.20;;
19965;SDS011;10144;50.874;4.762;2022-10-22T13:58:42;9.68;;;1.30;;
19965;SDS011;10144;50.874;4.762;2022-10-22T14:01:19;7.72;;;1.40;;
19965;SDS011;10144;50.874;4.762;2022-10-22T14:03:47;7.97;;;1.15;;
19965;SDS011;10144;50.874;4.762;2022-10-22T14:06:15;6.22;;;1.50;;
19965;SDS011;10144;50.874;4.762;2022-10-22T14:08:43;5.53;;;1.10;;
19965;SDS011;10144;50.874;4.762;2022-10-22T14:11:10;6.78;;;1.30;;
19965;SDS011;10144;50.874;4.762;2022-10-22T14:13:36;8.57;;;1.80;;
19965;SDS011;10144;50.874;4.762;2022-10-22T14:16:03;7.57;;;1.30;;
19965;SDS011;10144;50.874;4.762;2022-10-22T14:18:30;6.63;;;1.10;;
19965;SDS011;10144;50.874;4.762;2022-10-22T14:21:00;8.95;;;1.15;;
19965;SDS011;10144;50.874;4.762;2022-10-22T14:23:34;5.00;;;1.02;;
19965;SDS011;10144;50.874;4.762;2022-10-22T14:26:01;6.75;;;1.20;;
19965;SDS011;10144;50.874;4.762;2022-10-22T14:28:27;9.90;;;1.55;;
19965;SDS011;10144;50.874;4.762;2022-10-22T14:30:52;6.30;;;1.10;;
19965;SDS011;10144;50.874;4.762;2022-10-22T14:35:44;6.72;;;1.58;;
19965;SDS011;10144;50.874;4.762;2022-10-22T14:38:11;5.45;;;1.05;;
19965;SDS011;10144;50.874;4.762;2022-10-22T14:40:37;6.30;;;1.08;;
19965;SDS011;10144;50.874;4.762;2022-10-22T14:43:04;8.57;;;1.50;;
19965;SDS011;10144;50.874;4.762;2022-10-22T14:45:29;6.97;;;1.38;;
19965;SDS011;10144;50.874;4.762;2022-10-22T14:47:55;6.85;;;1.20;;
19965;SDS011;10144;50.874;4.762;2022-10-22T14:50:21;6.60;;;1.30;;
19965;SDS011;10144;50.874;4.762;2022-10-22T14:52:48;8.73;;;1.33;;
19965;SDS011;10144;50.874;4.762;2022-10-22T14:55:14;11.35;;;1.58;;
19965;SDS011;10144;50.874;4.762;2022-10-22T14:57:41;10.25;;;1.30;;
19965;SDS011;10144;50.874;4.762;2022-10-22T15:00:08;6.88;;;1.40;;
19965;SDS011;10144;50.874;4.762;2022-10-22T15:02:41;3.83;;;1.00;;
19965;SDS011;10144;50.874;4.762;2022-10-22T15:05:07;8.00;;;1.35;;
19965;SDS011;10144;50.874;4.762;2022-10-22T15:07:33;5.25;;;1.25;;
19965;SDS011;10144;50.874;4.762;2022-10-22T15:09:59;8.80;;;1.48;;
19965;SDS011;10144;50.874;4.762;2022-10-22T15:12:25;8.48;;;1.58;;
19965;SDS011;10144;50.874;4.762;2022-10-22T15:14:51;6.18;;;1.33;;
19965;SDS011;10144;50.874;4.762;2022-10-22T15:17:17;6.28;;;1.45;;
19965;SDS011;10144;50.874;4.762;2022-10-22T15:19:43;5.55;;;1.55;;
19965;SDS011;10144;50.874;4.762;2022-10-22T15:22:09;9.77;;;1.95;;
19965;SDS011;10144;50.874;4.762;2022-10-22T15:24:36;9.27;;;1.50;;
19965;SDS011;10144;50.874;4.762;2022-10-22T15:27:02;6.75;;;1.40;;
19965;SDS011;10144;50.874;4.762;2022-10-22T15:29:29;5.00;;;1.35;;
19965;SDS011;10144;50.874;4.762;2022-10-22T15:31:55;6.63;;;1.50;;
19965;SDS011;10144;50.874;4.762;2022-10-22T15:34:32;6.70;;;1.50;;
19965;SDS011;10144;50.874;4.762;2022-10-22T15:36:59;8.70;;;2.25;;
19965;SDS011;10144;50.874;4.762;2022-10-22T15:39:27;8.63;;;3.08;;
19965;SDS011;10144;50.874;4.762;2022-10-22T15:41:53;8.20;;;1.85;;
19965;SDS011;10144;50.874;4.762;2022-10-22T15:44:23;9.95;;;1.90;;
19965;SDS011;10144;50.874;4.762;2022-10-22T15:46:50;7.85;;;1.45;;
19965;SDS011;10144;50.874;4.762;2022-10-22T15:49:18;9.43;;;1.65;;
19965;SDS011;10144;50.874;4.762;2022-10-22T15:51:45;7.53;;;1.60;;
19965;SDS011;10144;50.874;4.762;2022-10-22T15:54:15;14.93;;;1.70;;
19965;SDS011;10144;50.874;4.762;2022-10-22T15:56:42;7.93;;;1.58;;
19965;SDS011;10144;50.874;4.762;2022-10-22T15:59:09;4.53;;;1.50;;
19965;SDS011;10144;50.874;4.762;2022-10-22T16:01:36;8.02;;;1.75;;
19965;SDS011;10144;50.874;4.762;2022-10-22T16:04:03;7.97;;;1.60;;
19965;SDS011;10144;50.874;4.762;2022-10-22T16:06:30;7.18;;;1.60;;
19965;SDS011;10144;50.874;4.762;2022-10-22T16:08:56;12.90;;;1.50;;
19965;SDS011;10144;50.874;4.762;2022-10-22T16:11:23;11.38;;;1.85;;
19965;SDS011;10144;50.874;4.762;2022-10-22T16:13:53;8.75;;;1.80;;
19965;SDS011;10144;50.874;4.762;2022-10-22T16:16:20;8.13;;;1.60;;
19965;SDS011;10144;50.874;4.762;2022-10-22T16:18:47;8.32;;;1.73;;
19965;SDS011;10144;50.874;4.762;2022-10-22T16:21:12;8.90;;;1.70;;
19965;SDS011;10144;50.874;4.762;2022-10-22T16:23:39;6.15;;;1.45;;
19965;SDS011;10144;50.874;4.762;2022-10-22T16:26:05;7.18;;;1.85;;
19965;SDS011;10144;50.874;4.762;2022-10-22T16:28:31;7.72;;;1.83;;
19965;SDS011;10144;50.874;4.762;2022-10-22T16:31:00;5.65;;;1.67;;
19965;SDS011;10144;50.874;4.762;2022-10-22T16:33:26;8.68;;;2.40;;
19965;SDS011;10144;50.874;4.762;2022-10-22T16:35:53;7.90;;;2.20;;
19965;SDS011;10144;50.874;4.762;2022-10-22T16:38:19;11.40;;;2.20;;
19965;SDS011;10144;50.874;4.762;2022-10-22T16:40:44;8.77;;;2.40;;
19965;SDS011;10144;50.874;4.762;2022-10-22T16:43:10;4.53;;;1.63;;
19965;SDS011;10144;50.874;4.762;2022-10-22T16:45:35;6.45;;;2.15;;
19965;SDS011;10144;50.874;4.762;2022-10-22T16:48:01;8.20;;;2.33;;
19965;SDS011;10144;50.874;4.762;2022-10-22T16:50:27;8.95;;;2.17;;
19965;SDS011;10144;50.874;4.762;2022-10-22T16:52:52;6.50;;;1.67;;
19965;SDS011;10144;50.874;4.762;2022-10-22T16:55:18;10.07;;;2.13;;
19965;SDS011;10144;50.874;4.762;2022-10-22T16:57:48;11.40;;;1.70;;
19965;SDS011;10144;50.874;4.762;2022-10-22T17:00:17;8.82;;;1.70;;
19965;SDS011;10144;50.874;4.762;2022-10-22T17:02:43;7.85;;;1.90;;
19965;SDS011;10144;50.874;4.762;2022-10-22T17:05:09;9.82;;;2.13;;
19965;SDS011;10144;50.874;4.762;2022-10-22T17:07:34;7.97;;;2.10;;
19965;SDS011;10144;50.874;4.762;2022-10-22T17:10:00;11.30;;;2.33;;
19965;SDS011;10144;50.874;4.762;2022-10-22T17:12:27;10.05;;;2.15;;
19965;SDS011;10144;50.874;4.762;2022-10-22T17:14:59;13.23;;;2.20;;
19965;SDS011;10144;50.874;4.762;2022-10-22T17:17:25;8.57;;;2.10;;
19965;SDS011;10144;50.874;4.762;2022-10-22T17:19:51;10.05;;;2.00;;
19965;SDS011;10144;50.874;4.762;2022-10-22T17:22:17;7.47;;;2.00;;
19965;SDS011;10144;50.874;4.762;2022-10-22T17:24:42;4.82;;;1.80;;
19965;SDS011;10144;50.874;4.762;2022-10-22T17:27:08;8.65;;;2.42;;
19965;SDS011;10144;50.874;4.762;2022-10-22T17:29:35;12.80;;;3.25;;
19965;SDS011;10144;50.874;4.762;2022-10-22T17:32:00;16.30;;;4.30;;
19965;SDS011;10144;50.874;4.762;2022-10-22T17:34:26;15.45;;;3.50;;
19965;SDS011;10144;50.874;4.762;2022-10-22T17:36:54;12.07;;;2.50;;
19965;SDS011;10144;50.874;4.762;2022-10-22T17:39:24;10.38;;;2.50;;
19965;SDS011;10144;50.874;4.762;2022-10-22T17:41:50;14.38;;;2.75;;
19965;SDS011;10144;50.874;4.762;2022-10-22T17:44:16;15.02;;;2.90;;
19965;SDS011;10144;50.874;4.762;2022-10-22T17:46:42;11.93;;;2.58;;
19965;SDS011;10144;50.874;4.762;2022-10-22T17:49:17;11.13;;;2.17;;
19965;SDS011;10144;50.874;4.762;2022-10-22T17:51:43;10.13;;;2.60;;
19965;SDS011;10144;50.874;4.762;2022-10-22T17:54:09;8.60;;;2.60;;
19965;SDS011;10144;50.874;4.762;2022-10-22T17:56:37;10.25;;;2.53;;
19965;SDS011;10144;50.874;4.762;2022-10-22T17:59:07;8.30;;;2.42;;
19965;SDS011;10144;50.874;4.762;2022-10-22T18:01:35;15.05;;;2.75;;
19965;SDS011;10144;50.874;4.762;2022-10-22T18:04:05;12.20;;;2.67;;
19965;SDS011;10144;50.874;4.762;2022-10-22T18:06:33;10.50;;;2.67;;
19965;SDS011;10144;50.874;4.762;2022-10-22T18:09:03;11.13;;;2.70;;
19965;SDS011;10144;50.874;4.762;2022-10-22T18:11:30;11.65;;;2.80;;
19965;SDS011;10144;50.874;4.762;2022-10-22T18:13:56;12.07;;;3.20;;
19965;SDS011;10144;50.874;4.762;2022-10-22T18:16:23;13.90;;;2.80;;
19965;SDS011;10144;50.874;4.762;2022-10-22T18:18:49;8.18;;;2.85;;
19965;SDS011;10144;50.874;4.762;2022-10-22T18:21:17;13.57;;;3.40;;
19965;SDS011;10144;50.874;4.762;2022-10-22T18:23:43;15.52;;;3.20;;